Time;durP1;ratioP1;P1;durP2;ratioP2;P2;SDS_P1;SDS_P2;PMS_P1;PMS_P2;Temp;Humidity;BMP_temperature;BMP_pressure;BME280_temperature;BME280_humidity;BME280_pressure;Samples;Min_cycle;Max_cycle;Signal;HPM_P1;HPM_P2
2022/05/02 00:01:30;;;;;;;;;16.25;14.25;;;;;16.69;54.49;101668.97;5061226;28;45495;-78
2022/05/02 00:03:56;;;;;;;;;12.00;10.25;;;;;16.66;55.45;101662.75;5079650;28;44798;-77
2022/05/02 00:06:21;;;;;;;;;15.00;12.75;;;;;16.67;55.53;101664.50;5079368;28;45553;-78
2022/05/02 00:08:47;;;;;;;;;15.75;12.50;;;;;16.62;55.51;101653.88;5079211;27;45446;-77
2022/05/02 00:11:13;;;;;;;;;14.75;14.75;;;;;16.63;55.54;101668.09;5079365;28;45426;-78
2022/05/02 00:13:38;;;;;;;;;14.00;13.00;;;;;16.60;55.95;101658.31;5079278;28;45470;-78
2022/05/02 00:16:06;;;;;;;;;13.00;11.00;;;;;16.58;55.47;101654.75;5080381;27;45294;-78
2022/05/02 00:18:32;;;;;;;;;14.00;14.00;;;;;16.55;55.89;101654.75;5099460;27;46519;-79
2022/05/02 00:20:57;;;;;;;;;13.00;12.00;;;;;16.52;55.74;101648.56;5081082;27;45953;-77
2022/05/02 00:23:23;;;;;;;;;13.00;12.75;;;;;16.51;55.99;101644.97;5099691;27;45583;-77
2022/05/02 00:25:48;;;;;;;;;13.50;13.00;;;;;16.48;56.53;101648.53;5099672;27;45296;-78
2022/05/02 00:28:14;;;;;;;;;16.25;12.50;;;;;16.47;56.44;101645.88;5099497;27;46193;-79
2022/05/02 00:30:40;;;;;;;;;13.25;13.00;;;;;16.42;57.00;101643.22;5098267;27;45381;-78
2022/05/02 00:33:06;;;;;;;;;15.50;13.50;;;;;16.40;57.17;101639.63;5099563;27;45284;-78
2022/05/02 00:35:32;;;;;;;;;15.00;12.50;;;;;16.37;57.33;101637.00;5095273;27;45278;-78
2022/05/02 00:37:58;;;;;;;;;18.25;13.50;;;;;16.35;57.40;101638.78;5081103;27;45366;-78
2022/05/02 00:40:24;;;;;;;;;13.25;11.00;;;;;16.35;57.35;101637.88;5093097;27;45410;-78
2022/05/02 00:42:50;;;;;;;;;13.50;12.00;;;;;16.32;57.23;101646.75;5099383;27;45317;-78
2022/05/02 00:45:16;;;;;;;;;12.75;11.75;;;;;16.30;57.91;101639.63;5099251;27;45334;-78
2022/05/02 00:47:49;;;;;;;;;20.75;16.25;;;;;16.26;58.16;101630.78;5099278;27;45754;-79
2022/05/02 00:50:15;;;;;;;;;17.75;15.00;;;;;16.23;58.08;101639.63;5099148;27;45269;-78
2022/05/02 00:52:40;;;;;;;;;15.75;14.00;;;;;16.21;58.44;101622.78;5099140;27;50206;-78
2022/05/02 00:55:05;;;;;;;;;13.50;12.00;;;;;16.19;58.63;101628.97;5099451;27;45379;-78
2022/05/02 00:57:32;;;;;;;;;17.50;14.00;;;;;16.17;58.47;101631.66;5080941;27;45738;-78
2022/05/02 00:59:58;;;;;;;;;13.50;13.25;;;;;16.15;58.65;101619.22;5080400;27;45426;-78
2022/05/02 01:02:23;;;;;;;;;17.50;13.25;;;;;16.11;58.89;101609.44;5078356;28;48708;-78
2022/05/02 01:04:49;;;;;;;;;16.00;12.25;;;;;16.06;59.22;101612.09;5078810;27;45181;-78
2022/05/02 01:07:20;;;;;;;;;21.50;15.75;;;;;16.04;59.93;101607.69;5077120;28;45770;-77
2022/05/02 01:09:48;;;;;;;;;18.00;15.00;;;;;16.01;59.73;101599.66;5078219;27;45391;-78
2022/05/02 01:12:14;;;;;;;;;14.75;14.00;;;;;15.97;59.96;101612.97;5078599;28;45462;-78
2022/05/02 01:14:42;;;;;;;;;17.50;16.00;;;;;15.93;59.74;101605.00;5082362;27;45448;-77
2022/05/02 01:17:08;;;;;;;;;14.75;14.75;;;;;15.90;60.20;101599.66;5098839;27;46750;-79
2022/05/02 01:19:34;;;;;;;;;18.25;15.75;;;;;15.88;60.73;101601.44;5098748;27;45436;-78
2022/05/02 01:22:00;;;;;;;;;15.50;14.75;;;;;15.83;60.74;101600.53;5098843;27;45290;-78
2022/05/02 01:24:42;;;;;;;;;17.00;15.25;;;;;15.81;60.78;101602.28;5098887;27;45473;-78
2022/05/02 01:27:09;;;;;;;;;18.25;16.25;;;;;15.75;61.24;101600.50;5098690;27;47449;-78
2022/05/02 01:29:35;;;;;;;;;18.00;15.75;;;;;15.73;61.15;101602.28;5098552;27;45329;-78
2022/05/02 01:32:06;;;;;;;;;17.00;14.75;;;;;15.69;61.23;101603.16;5080569;27;45261;-78
2022/05/02 01:34:32;;;;;;;;;18.50;17.00;;;;;15.68;61.45;101601.41;5094326;27;45439;-78
2022/05/02 01:36:58;;;;;;;;;16.00;15.00;;;;;15.66;61.60;101593.41;5098520;27;46486;-78
2022/05/02 01:39:23;;;;;;;;;16.25;16.00;;;;;15.64;61.71;101605.81;5098256;27;45313;-78
2022/05/02 01:41:49;;;;;;;;;19.25;16.50;;;;;15.65;61.70;101604.91;5080571;27;45412;-79
2022/05/02 01:44:14;;;;;;;;;16.50;16.00;;;;;15.62;61.69;101598.69;5078068;28;45541;-78
2022/05/02 01:46:40;;;;;;;;;15.75;15.75;;;;;15.58;62.08;101602.22;5077554;28;46264;-77
2022/05/02 01:49:06;;;;;;;;;20.25;18.00;;;;;15.56;62.05;101604.00;5078021;28;45211;-78
2022/05/02 01:51:31;;;;;;;;;18.25;16.00;;;;;15.54;62.33;101603.97;5059588;28;45334;-78
2022/05/02 01:53:57;;;;;;;;;16.25;16.25;;;;;15.49;62.66;101605.72;5083676;27;45549;-76
2022/05/02 01:56:22;;;;;;;;;18.50;15.75;;;;;15.45;62.59;101603.97;5098124;27;51191;-76
2022/05/02 01:58:47;;;;;;;;;13.25;13.25;;;;;15.44;63.17;101607.50;5095687;27;45202;-77
2022/05/02 02:01:13;;;;;;;;;17.25;17.25;;;;;15.40;63.87;101600.41;5085170;27;45181;-78
2022/05/02 02:03:38;;;;;;;;;23.25;18.50;;;;;15.41;63.63;101599.50;5077715;28;45631;-79
2022/05/02 02:06:04;;;;;;;;;21.00;17.00;;;;;15.37;63.94;101598.59;5048797;28;46253;-78
2022/05/02 02:08:31;;;;;;;;;19.50;17.50;;;;;15.34;64.46;101603.94;5050034;28;45526;-77
2022/05/02 02:11:02;;;;;;;;;19.00;18.25;;;;;15.33;64.94;101603.91;5053106;28;45287;-78
2022/05/02 02:13:28;;;;;;;;;18.00;17.00;;;;;15.28;64.91;101601.22;5037193;28;45238;-78
2022/05/02 02:15:54;;;;;;;;;19.25;15.50;;;;;15.26;65.56;101596.78;5046586;28;45765;-77
2022/05/02 02:18:20;;;;;;;;;17.00;17.00;;;;;15.23;65.71;101597.66;5057108;28;45410;-77
2022/05/02 02:20:47;;;;;;;;;19.00;16.75;;;;;15.21;65.85;101596.75;5055894;28;45371;-76
2022/05/02 02:23:14;;;;;;;;;20.50;19.00;;;;;15.17;66.69;101595.84;5055938;28;45252;-77
2022/05/02 02:25:40;;;;;;;;;20.50;18.00;;;;;15.17;66.58;101598.50;5056936;28;46545;-77
2022/05/02 02:28:06;;;;;;;;;18.00;17.00;;;;;15.17;67.51;101595.84;5056020;28;45317;-77
2022/05/02 02:30:32;;;;;;;;;19.50;18.25;;;;;15.16;67.37;101595.84;5057131;28;45451;-78
2022/05/02 02:32:58;;;;;;;;;19.00;16.00;;;;;15.16;67.39;101591.41;5054931;28;45340;-76
2022/05/02 02:35:24;;;;;;;;;19.75;16.50;;;;;15.16;67.44;101583.44;5056831;28;45750;-77
2022/05/02 02:37:50;;;;;;;;;18.00;17.75;;;;;15.15;67.81;101579.00;5057540;28;45234;-78
2022/05/02 02:40:16;;;;;;;;;19.50;16.25;;;;;15.16;68.57;101587.88;5052333;28;45403;-77
2022/05/02 02:42:41;;;;;;;;;19.00;17.75;;;;;15.13;68.61;101583.44;5037125;28;45357;-78
2022/05/02 02:45:07;;;;;;;;;18.25;16.50;;;;;15.10;68.95;101583.41;5036967;28;45349;-78
2022/05/02 02:47:33;;;;;;;;;16.00;16.00;;;;;15.08;69.39;101574.56;5036784;28;45387;-78
2022/05/02 02:49:58;;;;;;;;;19.00;17.00;;;;;15.04;69.57;101580.75;5036915;28;45533;-77
2022/05/02 02:52:24;;;;;;;;;19.25;18.25;;;;;15.03;69.23;101580.75;5036998;28;45319;-77
2022/05/02 02:54:49;;;;;;;;;17.00;15.75;;;;;15.00;70.04;101578.06;5037291;28;45620;-78
2022/05/02 02:57:15;;;;;;;;;21.50;18.00;;;;;14.96;70.50;101577.13;5036478;28;45308;-79
2022/05/02 02:59:40;;;;;;;;;23.00;19.50;;;;;14.94;69.97;101576.25;5052490;28;45446;-78
2022/05/02 03:02:06;;;;;;;;;18.25;18.25;;;;;14.91;69.92;101570.91;5056652;28;45299;-78
2022/05/02 03:07:17;;;;;;;;;23.25;17.50;;;;;14.85;70.56;101565.56;5094780;27;45236;-77
2022/05/02 03:09:42;;;;;;;;;26.75;20.75;;;;;14.83;70.11;101568.22;5100638;27;46158;-78
2022/05/02 03:12:08;;;;;;;;;25.50;22.00;;;;;14.80;70.41;101562.88;5091527;27;45225;-77
2022/05/02 03:14:34;;;;;;;;;28.50;22.00;;;;;14.80;70.09;101562.00;5079975;28;46825;-78
2022/05/02 03:16:59;;;;;;;;;27.00;23.25;;;;;14.76;70.47;101553.13;5080450;28;45265;-78
2022/05/02 03:19:25;;;;;;;;;26.50;22.50;;;;;14.77;70.38;101562.00;5080449;27;46071;-78
2022/05/02 03:21:50;;;;;;;;;29.50;22.75;;;;;14.74;69.98;101556.63;5080342;28;45323;-77
2022/05/02 03:24:16;;;;;;;;;26.00;23.75;;;;;14.73;69.92;101554.88;5061847;28;47402;-77
2022/05/02 03:26:41;;;;;;;;;30.00;25.25;;;;;14.68;69.97;101555.72;5080120;28;45266;-78
2022/05/02 03:29:06;;;;;;;;;25.75;23.25;;;;;14.67;70.46;101548.63;5080150;28;45707;-77
2022/05/02 03:31:32;;;;;;;;;22.50;21.00;;;;;14.67;69.97;101551.28;5085279;27;45313;-77
2022/05/02 03:33:57;;;;;;;;;27.00;22.75;;;;;14.66;70.29;101559.28;5095693;27;47176;-78
2022/05/02 03:36:23;;;;;;;;;27.25;24.50;;;;;14.64;69.74;101550.38;5100275;27;45356;-78
2022/05/02 03:38:48;;;;;;;;;25.50;23.25;;;;;14.61;69.78;101545.94;5081833;27;45855;-78
2022/05/02 03:41:14;;;;;;;;;34.50;27.75;;;;;14.60;69.81;101546.84;5087358;27;45413;-77
2022/05/02 03:43:39;;;;;;;;;27.50;24.75;;;;;14.59;70.21;101552.13;5079425;27;46447;-78
2022/05/02 03:46:05;;;;;;;;;26.50;25.75;;;;;14.58;69.98;101551.22;5079925;27;45283;-78
2022/05/02 03:48:30;;;;;;;;;27.75;24.00;;;;;14.56;70.25;101549.47;5079814;28;45295;-78
2022/05/02 03:50:55;;;;;;;;;25.25;22.00;;;;;14.52;70.42;101548.53;5079961;28;47395;-77
2022/05/02 03:53:21;;;;;;;;;25.75;22.75;;;;;14.48;70.38;101541.41;5080850;27;49726;-77
2022/05/02 03:55:47;;;;;;;;;23.50;21.00;;;;;14.45;70.57;101538.72;5100309;27;45203;-77
2022/05/02 03:58:13;;;;;;;;;27.00;24.00;;;;;14.44;71.07;101539.63;5096387;27;45178;-78
2022/05/02 04:00:38;;;;;;;;;30.75;24.75;;;;;14.43;71.13;101545.78;5079899;28;45467;-78
2022/05/02 04:03:04;;;;;;;;;25.50;24.00;;;;;14.43;71.60;101545.78;5077822;28;45478;-79
2022/05/02 04:05:29;;;;;;;;;23.00;23.00;;;;;14.38;71.29;101539.53;5060913;28;45464;-77
2022/05/02 04:07:54;;;;;;;;;26.75;24.00;;;;;14.41;71.36;101540.47;5079429;27;47058;-78
2022/05/02 04:10:20;;;;;;;;;29.75;24.50;;;;;14.41;71.92;101536.91;5070127;27;45521;-77
2022/05/02 04:12:46;;;;;;;;;28.75;21.00;;;;;14.42;71.64;101539.59;5099404;27;45923;-77
2022/05/02 04:15:11;;;;;;;;;23.00;21.75;;;;;14.41;72.85;101548.44;5081725;27;45399;-78
2022/05/02 04:17:38;;;;;;;;;18.50;15.00;;;;;14.41;73.28;101542.25;5099200;27;45284;-77
2022/05/02 04:20:05;;;;;;;;;23.00;18.00;;;;;14.40;74.01;101545.78;5099701;27;45633;-78
2022/05/02 04:22:30;;;;;;;;;20.25;19.50;;;;;14.36;73.85;101549.28;5099274;27;46916;-78
2022/05/02 04:24:55;;;;;;;;;21.25;21.00;;;;;14.35;73.63;101551.06;5081251;27;51580;-76
2022/05/02 04:27:21;;;;;;;;;22.50;21.25;;;;;14.37;74.75;101548.41;5099941;27;45693;-77
2022/05/02 04:29:46;;;;;;;;;21.50;19.25;;;;;14.38;74.37;101548.44;5099868;27;45259;-77
2022/05/02 04:32:12;;;;;;;;;26.00;22.00;;;;;14.34;74.91;101548.41;5098930;27;46657;-78
2022/05/02 04:34:37;;;;;;;;;25.75;21.75;;;;;14.30;75.25;101547.47;5073249;28;45386;-78
2022/05/02 04:37:03;;;;;;;;;24.75;23.50;;;;;14.26;75.75;101545.66;5092598;27;45149;-78
2022/05/02 04:39:28;;;;;;;;;23.00;20.75;;;;;14.28;76.06;101557.22;5077625;28;45292;-77
2022/05/02 04:41:53;;;;;;;;;25.25;23.50;;;;;14.25;75.81;101553.63;5097077;27;46119;-77
2022/05/02 04:44:19;;;;;;;;;22.00;21.00;;;;;14.24;76.07;101546.56;5081054;27;45204;-78
2022/05/02 04:46:44;;;;;;;;;22.75;21.50;;;;;14.23;76.42;101553.63;5085587;27;45778;-77
2022/05/02 04:49:10;;;;;;;;;24.50;23.00;;;;;14.22;76.60;101546.56;5078686;27;46735;-78
2022/05/02 04:51:35;;;;;;;;;25.50;19.75;;;;;14.22;76.94;101557.19;5078684;28;51229;-78
2022/05/02 04:54:00;;;;;;;;;26.00;22.25;;;;;14.21;77.73;101557.13;5085792;27;45434;-78
2022/05/02 04:56:26;;;;;;;;;25.25;21.50;;;;;14.20;78.58;101553.59;5081249;27;45343;-77
2022/05/02 04:58:51;;;;;;;;;23.25;18.75;;;;;14.19;77.86;101557.13;5072367;27;45295;-78
2022/05/02 05:01:17;;;;;;;;;28.50;23.75;;;;;14.14;78.61;101549.13;5099044;27;45584;-78
2022/05/02 05:03:42;;;;;;;;;27.50;24.00;;;;;14.12;78.34;101550.00;5097659;27;45265;-78
2022/05/02 05:06:08;;;;;;;;;23.50;23.25;;;;;14.12;78.77;101561.53;5073983;22;45554;-78
2022/05/02 05:08:34;;;;;;;;;28.25;24.50;;;;;14.12;79.10;101555.31;5078321;27;45632;-77
2022/05/02 05:11:25;;;;;;;;;28.75;23.50;;;;;14.11;80.06;101556.16;5078433;28;45459;-79
2022/05/02 05:17:13;;;;;;;;;28.75;24.25;;;;;14.16;80.03;101560.63;5077642;28;45345;-79
2022/05/02 05:19:44;;;;;;;;;24.25;23.75;;;;;14.17;80.63;101558.91;5078517;28;45329;-78
2022/05/02 05:22:25;;;;;;;;;28.00;28.00;;;;;14.16;79.32;101562.41;5078265;28;46970;-78
2022/05/02 05:25:23;;;;;;;;;27.00;26.00;;;;;14.17;79.79;101564.22;5060284;28;45482;-78
2022/05/02 05:28:03;;;;;;;;;32.00;29.50;;;;;14.14;79.44;101559.75;5075948;27;45291;-79
2022/05/02 05:30:38;;;;;;;;;30.50;27.75;;;;;14.16;79.88;101563.28;5076829;28;45604;-78
2022/05/02 05:33:21;;;;;;;;;30.75;27.00;;;;;14.17;79.91;101556.25;5077814;28;46687;-79
2022/05/02 05:36:05;;;;;;;;;32.00;28.75;;;;;14.21;80.07;101554.47;5074077;28;45339;-79
2022/05/02 05:38:54;;;;;;;;;35.00;30.75;;;;;14.21;80.05;101560.69;5078325;28;45496;-79
2022/05/02 05:41:56;;;;;;;;;33.00;31.25;;;;;14.24;80.56;101549.22;5081577;27;45419;-79
2022/05/02 05:44:27;;;;;;;;;34.50;32.00;;;;;14.26;80.02;101550.97;5077942;28;46478;-78
2022/05/02 05:46:52;;;;;;;;;31.75;28.00;;;;;14.30;80.24;101550.13;5077831;28;45466;-79
2022/05/02 05:49:36;;;;;;;;;34.50;29.00;;;;;14.32;80.27;101551.03;5078311;28;45289;-79
2022/05/02 05:52:10;;;;;;;;;36.50;32.75;;;;;14.35;80.57;101561.69;5077942;28;45399;-79
2022/05/02 05:55:04;;;;;;;;;35.25;32.50;;;;;14.39;80.14;101546.66;5077628;27;46873;-79
2022/05/02 05:57:41;;;;;;;;;38.50;34.75;;;;;14.42;79.98;101549.31;5077627;28;45307;-79
2022/05/02 06:00:14;;;;;;;;;36.50;33.00;;;;;14.47;80.16;101554.66;5080647;27;45185;-79
2022/05/02 06:02:47;;;;;;;;;38.50;32.00;;;;;14.51;79.92;101552.09;5077798;28;45331;-78
2022/05/02 06:05:14;;;;;;;;;39.50;34.75;;;;;14.54;80.06;101557.44;5077401;28;46749;-78
2022/05/02 06:07:40;;;;;;;;;44.50;35.50;;;;;14.54;80.52;101556.50;5077451;28;45402;-79
2022/05/02 06:10:09;;;;;;;;;33.75;33.25;;;;;14.53;80.03;101557.41;5077607;27;45327;-78
2022/05/02 06:12:38;;;;;;;;;39.75;34.50;;;;;14.50;80.17;101558.28;5077818;28;45488;-79
2022/05/02 06:20:38;;;;;;;;;46.00;37.00;;;;;14.49;80.14;101560.91;5077492;28;45297;-79
2022/05/02 06:23:07;;;;;;;;;50.25;40.75;;;;;14.48;79.91;101560.03;5077530;28;45339;-78
2022/05/02 06:25:33;;;;;;;;;50.75;38.25;;;;;14.50;80.23;101560.94;5077133;28;45529;-79
2022/05/02 06:28:02;;;;;;;;;51.75;40.00;;;;;14.53;80.40;101552.97;5077308;27;45243;-79
2022/05/02 06:30:28;;;;;;;;;43.25;36.25;;;;;14.57;80.32;101562.75;5077329;28;45177;-78
2022/05/02 06:32:54;;;;;;;;;50.25;38.00;;;;;14.62;80.45;101554.81;5077123;28;45200;-78
2022/05/02 06:35:20;;;;;;;;;44.50;35.25;;;;;14.69;80.01;101559.28;5058866;28;50554;-78
2022/05/02 06:38:01;;;;;;;;;48.75;36.25;;;;;14.76;79.54;101563.75;5058845;28;45170;-78
2022/05/02 06:40:30;;;;;;;;;45.75;36.00;;;;;14.83;79.42;101557.59;5085338;27;45386;-78
2022/05/02 06:43:17;;;;;;;;;38.25;33.50;;;;;14.91;79.56;101561.19;5084063;28;45544;-78
2022/05/02 06:45:45;;;;;;;;;49.50;37.25;;;;;14.98;79.51;101558.56;5083493;28;46523;-78
2022/05/02 06:48:26;;;;;;;;;48.00;39.00;;;;;15.04;79.03;101556.78;5083846;28;45439;-78
2022/05/02 06:51:16;;;;;;;;;50.00;39.00;;;;;15.09;79.46;101565.69;5083829;28;45380;-79
2022/05/02 06:54:19;;;;;;;;;44.75;35.75;;;;;15.14;78.72;101568.38;5057125;28;45691;-78
2022/05/02 06:56:50;;;;;;;;;41.25;35.25;;;;;15.16;78.14;101562.16;5083399;28;47304;-78
2022/05/02 06:59:40;;;;;;;;;43.25;35.50;;;;;15.24;78.08;101572.84;5085400;27;45442;-78
2022/05/02 07:02:12;;;;;;;;;43.75;37.00;;;;;15.27;77.90;101575.50;5084080;27;45450;-79
2022/05/02 07:04:53;;;;;;;;;43.00;37.00;;;;;15.30;77.30;101577.31;5084404;27;45450;-79
2022/05/02 07:07:46;;;;;;;;;45.50;37.25;;;;;15.32;77.67;101573.75;5083259;28;46965;-77
2022/05/02 07:10:26;;;;;;;;;45.50;38.00;;;;;15.36;77.60;101580.88;5083577;27;45157;-78
2022/05/02 07:13:02;;;;;;;;;47.00;36.75;;;;;15.39;77.46;101574.66;5083440;28;45497;-79
2022/05/02 07:15:48;;;;;;;;;47.50;35.75;;;;;15.41;77.45;101568.47;5083599;28;46262;-79
2022/05/02 07:18:46;;;;;;;;;42.50;36.75;;;;;15.44;77.38;101571.09;5082083;28;47593;-79
2022/05/02 07:21:36;;;;;;;;;46.00;37.33;;;;;15.50;76.95;101572.94;5059715;28;45408;-78
2022/05/02 07:24:13;;;;;;;;;46.25;34.00;;;;;15.53;76.91;101564.94;5083554;28;45310;-78
2022/05/02 07:26:39;;;;;;;;;45.75;35.00;;;;;15.61;76.68;101571.19;5083473;28;45339;-78
2022/05/02 07:29:05;;;;;;;;;44.25;37.75;;;;;15.67;76.55;101565.00;5083200;28;46430;-79
2022/05/02 07:31:32;;;;;;;;;45.25;36.50;;;;;15.75;75.91;101565.00;5064793;28;45236;-79
2022/05/02 07:33:58;;;;;;;;;42.25;34.25;;;;;15.80;74.18;101563.25;5084086;27;45252;-79
2022/05/02 07:36:25;;;;;;;;;38.00;34.25;;;;;15.88;73.83;101567.69;5085628;27;45768;-78
2022/05/02 07:39:03;;;;;;;;;36.75;33.75;;;;;15.96;73.15;101568.59;5085000;27;46395;-79
2022/05/02 07:41:29;;;;;;;;;45.00;34.50;;;;;16.03;73.51;101569.47;5093367;27;45400;-80
2022/05/02 07:44:02;;;;;;;;;35.75;32.25;;;;;16.13;72.21;101565.03;5083219;28;45370;-78
2022/05/02 07:46:32;;;;;;;;;40.25;33.00;;;;;16.21;72.24;101569.47;5083256;28;45369;-79
2022/05/02 07:48:59;;;;;;;;;44.25;33.00;;;;;16.30;71.40;101567.69;5064761;28;47076;-78
2022/05/02 07:51:26;;;;;;;;;42.75;33.25;;;;;16.41;70.98;101568.59;5061970;28;45301;-79
2022/05/02 07:53:52;;;;;;;;;40.25;34.25;;;;;16.52;70.86;101557.91;5061274;28;45514;-78
2022/05/02 07:56:22;;;;;;;;;43.75;36.50;;;;;16.63;70.17;101558.78;5080102;28;45352;-77
2022/05/02 07:58:47;;;;;;;;;41.50;34.25;;;;;16.76;70.14;101564.09;5081998;27;47305;-79
2022/05/02 08:01:18;;;;;;;;;43.75;35.50;;;;;16.92;69.95;101566.72;5079464;28;45270;-80
2022/05/02 08:03:43;;;;;;;;;42.50;34.00;;;;;17.05;69.31;101565.78;5079710;28;45299;-79
2022/05/02 08:06:23;;;;;;;;;43.00;36.00;;;;;17.17;68.51;101565.72;5079527;28;45448;-79
2022/05/02 08:09:23;;;;;;;;;45.50;36.00;;;;;17.31;67.89;101557.66;5079233;27;47329;-79
2022/05/02 08:11:58;;;;;;;;;39.75;35.25;;;;;17.44;67.35;101561.16;5079510;27;45942;-79
2022/05/02 08:14:50;;;;;;;;;47.25;39.25;;;;;17.55;67.39;101556.63;5078065;28;45402;-79
2022/05/02 08:17:18;;;;;;;;;45.50;35.00;;;;;17.63;66.37;101569.91;5078230;28;45330;-79
2022/05/02 08:19:58;;;;;;;;;42.75;35.00;;;;;17.68;66.56;101560.97;5079328;28;46960;-80
2022/05/02 08:28:32;;;;;;;;;44.75;36.25;;;;;17.84;65.10;101555.56;5079323;28;45280;-79
2022/05/02 08:31:08;;;;;;;;;49.75;36.50;;;;;17.88;65.36;101552.88;5078791;28;47400;-80
2022/05/02 08:33:35;;;;;;;;;39.25;34.25;;;;;17.91;65.19;101560.00;5060785;28;45519;-79
2022/05/02 08:36:05;;;;;;;;;47.00;38.25;;;;;17.93;65.11;101543.03;5097668;27;45309;-79
2022/05/02 08:38:58;;;;;;;;;48.25;37.50;;;;;18.01;64.83;101553.69;5084131;27;45148;-78
2022/05/02 08:41:34;;;;;;;;;44.25;35.75;;;;;18.04;64.36;101556.31;5089265;27;47644;-78
2022/05/02 08:44:27;;;;;;;;;47.25;38.00;;;;;18.08;64.39;101554.50;5078506;28;45287;-79
2022/05/02 08:47:21;;;;;;;;;47.50;38.00;;;;;18.15;64.37;101548.19;5078953;28;45472;-80
2022/05/02 08:50:14;;;;;;;;;49.75;38.75;;;;;18.20;64.42;101552.59;5063677;27;45702;-78
2022/05/02 08:52:58;;;;;;;;;46.00;37.00;;;;;18.28;64.37;101549.88;5088475;27;46504;-79
2022/05/02 08:55:41;;;;;;;;;49.50;37.25;;;;;18.34;63.66;101544.47;5085680;27;45600;-80
2022/05/02 08:58:19;;;;;;;;;47.00;38.50;;;;;18.41;63.84;101550.63;5096438;27;45452;-78
2022/05/02 09:00:56;;;;;;;;;45.00;38.00;;;;;18.46;63.73;101555.03;5079013;28;45226;-79
2022/05/02 09:03:43;;;;;;;;;45.75;38.00;;;;;18.52;63.55;101557.63;5078312;28;46643;-78
2022/05/02 09:06:18;;;;;;;;;45.00;37.75;;;;;18.60;63.54;101557.56;5078252;28;45364;-79
2022/05/02 09:09:03;;;;;;;;;47.75;39.50;;;;;18.67;63.38;101553.03;5078575;27;45314;-79
2022/05/02 09:11:53;;;;;;;;;44.50;37.50;;;;;18.72;63.44;101553.91;5078313;27;45543;-79
2022/05/02 09:14:44;;;;;;;;;49.50;41.00;;;;;18.78;63.47;101551.16;5078004;28;47720;-78
2022/05/02 09:17:37;;;;;;;;;49.00;39.00;;;;;18.84;63.61;101551.97;5078262;28;45217;-79
2022/05/02 09:20:11;;;;;;;;;45.50;36.00;;;;;18.90;63.26;101550.13;5078563;28;45412;-79
2022/05/02 09:22:46;;;;;;;;;46.75;37.75;;;;;18.96;63.68;101550.03;5078276;28;45549;-78
2022/05/02 09:25:12;;;;;;;;;45.00;35.50;;;;;19.01;63.40;101537.50;5078118;28;47508;-78
2022/05/02 09:28:19;;;;;;;;;46.00;36.25;;;;;19.06;63.47;101544.56;5076868;28;46009;-79
2022/05/02 09:30:51;;;;;;;;;45.75;37.25;;;;;19.15;63.71;101537.34;5078108;28;45259;-80
2022/05/02 09:33:43;;;;;;;;;46.25;38.50;;;;;19.21;62.83;101539.91;5077879;28;45654;-79
2022/05/02 09:36:26;;;;;;;;;45.50;38.50;;;;;19.27;63.01;101539.84;5076828;28;46482;-80
2022/05/02 09:39:13;;;;;;;;;48.25;38.50;;;;;19.35;62.41;101536.16;5077741;28;45474;-79
2022/05/02 09:42:13;;;;;;;;;44.50;37.50;;;;;19.42;62.12;101530.72;5082625;27;45233;-79
2022/05/02 09:51:50;;;;;;;;;44.00;38.50;;;;;19.65;60.89;101523.25;5077031;28;45339;-78
2022/05/02 09:57:59;;;;;;;;;45.25;38.25;;;;;19.84;60.61;101527.41;5077561;28;45204;-79
2022/05/02 10:01:18;;;;;;;;;46.00;36.00;;;;;19.95;60.43;101521.88;5076685;28;46482;-79
2022/05/02 10:04:12;;;;;;;;;46.50;38.25;;;;;20.01;60.13;101519.09;5054921;28;45201;-80
2022/05/02 10:06:46;;;;;;;;;44.75;36.50;;;;;20.04;59.53;101513.69;5058782;28;45506;-79
2022/05/02 10:09:30;;;;;;;;;43.50;35.50;;;;;20.10;59.02;101512.69;5077779;27;45484;-79
2022/05/02 10:12:10;;;;;;;;;48.75;35.75;;;;;20.15;59.46;101519.75;5065084;28;45688;-80
2022/05/02 10:14:50;;;;;;;;;46.75;34.75;;;;;20.22;59.55;101511.59;5076827;28;45280;-78
2022/05/02 10:17:25;;;;;;;;;44.75;36.25;;;;;20.31;59.61;101512.31;5077423;28;45308;-79
2022/05/02 10:20:15;;;;;;;;;46.50;35.75;;;;;20.40;58.81;101506.78;5059509;28;45338;-79
2022/05/02 10:23:22;;;;;;;;;41.50;37.50;;;;;20.52;58.65;101507.50;5077207;28;47969;-79
2022/05/02 10:26:07;;;;;;;;;38.75;35.00;;;;;20.60;57.86;101505.53;5057108;28;45318;-79
2022/05/02 10:28:51;;;;;;;;;41.50;35.50;;;;;20.70;58.21;101504.44;5077384;28;45524;-79
2022/05/02 10:31:20;;;;;;;;;35.00;30.25;;;;;20.79;58.14;101498.88;5077525;28;45522;-78
2022/05/02 10:33:50;;;;;;;;;38.75;31.50;;;;;20.87;57.89;101490.66;5076864;28;46710;-78
2022/05/02 10:36:19;;;;;;;;;44.00;35.25;;;;;20.92;55.18;101503.06;5046153;28;46073;-80
2022/05/02 10:38:51;;;;;;;;;42.50;33.25;;;;;20.97;56.43;101492.22;5077316;28;45232;-78
2022/05/02 10:41:20;;;;;;;;;35.75;31.25;;;;;21.03;56.99;101493.91;5081870;27;45397;-79
2022/05/02 10:43:50;;;;;;;;;42.00;33.75;;;;;21.11;55.52;101494.63;5077013;28;47568;-79
2022/05/02 10:46:18;;;;;;;;;36.50;31.50;;;;;21.21;56.40;101498.00;5077077;28;45436;-80
2022/05/02 10:48:51;;;;;;;;;40.50;33.00;;;;;21.28;54.40;101480.81;5076832;28;45393;-79
2022/05/02 10:51:51;;;;;;;;;33.25;29.50;;;;;21.32;55.33;101498.66;5059022;28;45478;-79
2022/05/02 10:54:38;;;;;;;;;32.25;31.50;;;;;21.32;55.00;101485.25;5051429;28;47563;-79
2022/05/02 10:57:30;;;;;;;;;39.75;32.00;;;;;21.33;54.57;101476.25;5076965;27;45276;-79
2022/05/02 11:00:03;;;;;;;;;37.25;31.25;;;;;21.35;54.61;101477.09;5071762;27;45230;-79
2022/05/02 11:02:36;;;;;;;;;33.50;31.25;;;;;21.41;54.87;101485.00;5076666;28;45347;-79
2022/05/02 11:05:14;;;;;;;;;31.25;30.25;;;;;21.45;53.83;101481.31;5076595;28;46684;-78
2022/05/02 11:07:46;;;;;;;;;33.75;31.50;;;;;21.47;53.60;101481.31;5076647;28;45295;-80
2022/05/02 11:10:14;;;;;;;;;31.00;28.75;;;;;21.43;53.07;101475.13;5076855;27;45334;-79
2022/05/02 11:12:45;;;;;;;;;34.50;31.00;;;;;21.36;51.84;101463.66;5076802;28;45473;-79
2022/05/02 11:15:17;;;;;;;;;32.75;31.00;;;;;21.36;52.94;101452.91;5076584;28;46487;-78
2022/05/02 11:18:04;;;;;;;;;32.50;30.00;;;;;21.43;52.94;101470.63;5076336;28;45134;-80
2022/05/02 11:20:51;;;;;;;;;32.33;30.67;;;;;21.55;52.38;101461.38;5076914;28;45244;-79
2022/05/02 11:23:30;;;;;;;;;30.25;27.50;;;;;21.66;52.88;101458.44;5076737;28;45502;-79
2022/05/02 11:26:37;;;;;;;;;32.50;29.50;;;;;21.80;52.45;101463.47;5076759;28;46538;-79
2022/05/02 11:29:25;;;;;;;;;32.00;29.50;;;;;21.90;51.38;101463.19;5080051;28;45281;-78
2022/05/02 11:31:58;;;;;;;;;29.50;26.25;;;;;22.01;51.08;101459.34;5058070;28;45367;-79
2022/05/02 11:34:57;;;;;;;;;29.33;25.67;;;;;22.09;51.30;101460.00;5071292;27;45466;-78
2022/05/02 11:37:41;;;;;;;;;28.25;26.50;;;;;22.08;49.88;101455.56;5076741;28;47578;-78
2022/05/02 11:40:09;;;;;;;;;30.50;27.75;;;;;22.08;50.45;101447.50;5082674;27;45326;-78
2022/05/02 11:42:40;;;;;;;;;32.25;31.00;;;;;22.20;51.03;101453.44;5079617;28;45292;-80
2022/05/02 11:45:11;;;;;;;;;28.50;26.50;;;;;22.39;50.04;101456.53;5080247;28;45364;-79
2022/05/02 11:47:54;;;;;;;;;29.33;26.00;;;;;22.49;50.47;101451.78;5079735;28;48145;-79
2022/05/02 11:50:27;;;;;;;;;33.50;29.25;;;;;22.49;50.13;101447.25;5079602;28;45381;-79
2022/05/02 11:52:54;;;;;;;;;31.00;28.75;;;;;22.51;50.05;101452.59;5079929;28;45351;-79
2022/05/02 11:55:28;;;;;;;;;26.50;25.75;;;;;22.56;49.01;101444.38;5079519;27;45307;-79
2022/05/02 11:58:08;;;;;;;;;28.33;23.33;;;;;22.67;49.49;101436.88;5080474;27;46659;-79
2022/05/02 12:00:36;;;;;;;;;26.33;25.00;;;;;22.77;47.76;101449.16;5067041;28;45335;-79
2022/05/02 12:03:18;;;;;;;;;26.33;24.33;;;;;22.91;48.59;101441.56;5079386;28;45340;-79